Sti Opera — V7CJ3 — position and weather

sailwx.info

Track history (hours):
 
Tides and Currents Weather Stations Pressure Air Temp Water Temp Dewpoint Dewpoint Depression Visibility Wind Speed Wind Dir Waves Ship Positions

Sti Opera

Last reported at 2018-May-24 08:48 UTC. Time now 2018-Jun-18 01:44 UTC.
Position N 28°51' W 094°56'.
Warning: this ship's position is 24 days out of date.

Length 183 m; draft 9 m.

Type: Tanker. MMSI: 538005269.

Date/timePositionNaut miles runAvg speedWind from/ knotsBaromVisibWave heightAir tempDewpointWater temp
2018-May-24 08:48N 28°51' W 094°56'310.9
2018-May-24 08:30N 28°52' W 094°53'611.0
2018-May-24 08:01N 28°55' W 094°48'611.4
2018-May-24 07:30N 28°59' W 094°42'611.6
2018-May-24 07:00N 29°02' W 094°37'1010.5
2018-May-24 06:00N 29°08' W 094°28'511.0
2018-May-24 05:30N 29°12' W 094°32'611.2
2018-May-24 05:00N 29°17' W 094°36'510.2
2018-May-24 04:30N 29°20' W 094°40'612.0
2018-May-24 04:00N 29°21' W 094°47'612.3
2018-May-24 03:30N 29°27' W 094°50'612.1
2018-May-24 03:00N 29°32' W 094°54'611.4
2018-May-24 02:30N 29°37' W 094°57'510.3
2018-May-24 02:00N 29°41' W 094°59'4 8.0
2018-May-24 01:30N 29°44' W 095°03'3 5.8
2018-May-24 00:57N 29°44' W 095°07'3 6.5
2018-May-24 00:30N 29°45' W 095°10'3 5.6
2018-May-24 00:00N 29°43' W 095°13'3 0.2
2018-May-23 05:34N 29°44' W 095°17'0 1.1
2018-May-23 05:29N 29°44' W 095°17'2 2.5
2018-May-23 04:32N 29°43' W 095°14'0 5.9
2018-May-23 04:28N 29°43' W 095°14'2 5.2
2018-May-23 04:00N 29°45' W 095°12'3 5.6
2018-May-23 03:29N 29°44' W 095°08'3 6.2
2018-May-23 03:00N 29°46' W 095°05'4 7.1
2018-May-23 02:30N 29°44' W 095°02'4 7.6
2018-May-23 02:00N 29°41' W 094°59'5 9.9
2018-May-23 01:31N 29°36' W 094°57'510.9
2018-May-23 01:01N 29°32' W 094°54'611.7
2018-May-23 00:30N 29°27' W 094°50'611.8
2018-May-23 00:00N 29°21' W 094°47'611.3
2018-May-22 23:31N 29°20' W 094°41'611.5
2018-May-22 23:00N 29°18' W 094°35'3 2.9
2018-May-22 22:04N 29°18' W 094°32'0 0.0
2018-May-22 21:56N 29°18' W 094°32'0 0.0
2018-May-22 20:58N 29°18' W 094°32'0 0.0
2018-May-22 19:28N 29°18' W 094°32'0 0.0
2018-May-22 11:43N 29°18' W 094°32'0 0.0
2018-May-22 04:07N 29°18' W 094°32'0 0.0
2018-May-22 03:40N 29°18' W 094°32'0 0.0
2018-May-21 05:22N 29°18' W 094°32'0 0.1
2018-May-21 04:43N 29°18' W 094°32'0 0.1
2018-May-21 04:22N 29°18' W 094°32'0 0.1
2018-May-21 02:37N 29°18' W 094°32'0 0.0
2018-May-21 02:19N 29°18' W 094°32'0 0.0
2018-May-21 01:07N 29°18' W 094°32'  
2018-May-18 12:49N 29°18' W 094°32'0 0.0
2018-May-18 12:04N 29°18' W 094°32'0 0.1
2018-May-18 11:58N 29°18' W 094°32'0 0.0
2018-May-18 11:28N 29°18' W 094°32'0 0.0
2018-May-18 10:58N 29°18' W 094°32'0 0.0
2018-May-18 10:28N 29°18' W 094°32'0 0.0
2018-May-18 09:55N 29°18' W 094°32'0 0.0
2018-May-18 09:28N 29°18' W 094°32'0 0.0
2018-May-18 08:58N 29°18' W 094°32'0 0.0
2018-May-18 08:28N 29°18' W 094°32'0 0.0
2018-May-18 07:58N 29°18' W 094°32'0 0.0
2018-May-18 07:28N 29°18' W 094°32'0 0.0
2018-May-18 06:58N 29°18' W 094°32'0 0.0
2018-May-18 06:28N 29°18' W 094°32'0 0.0
2018-May-18 05:58N 29°18' W 094°32'0 0.0
2018-May-18 05:22N 29°18' W 094°32'0 0.0
2018-May-18 04:52N 29°18' W 094°32'0 0.0
2018-May-18 04:22N 29°18' W 094°32'0 0.0
2018-May-18 03:58N 29°18' W 094°32'0 0.0
2018-May-18 03:28N 29°18' W 094°32'0 0.0
2018-May-18 02:58N 29°18' W 094°32'0 0.0
2018-May-18 02:28N 29°18' W 094°32'0 0.0
2018-May-18 01:55N 29°18' W 094°32'0 0.0
2018-May-18 01:28N 29°18' W 094°32'0 0.0
2018-May-18 00:58N 29°18' W 094°32'0 0.0
2018-May-18 00:28N 29°18' W 094°32'0 0.0
2018-May-17 23:58N 29°18' W 094°32'0 0.0
2018-May-17 23:28N 29°18' W 094°32'0 0.0
2018-May-17 22:58N 29°18' W 094°32'0 0.0
2018-May-17 22:28N 29°18' W 094°32'0 0.0
2018-May-17 21:55N 29°18' W 094°32'0 0.0
2018-May-17 21:28N 29°18' W 094°32'0 0.0
2018-May-17 20:58N 29°18' W 094°32'0 0.0
2018-May-17 20:28N 29°18' W 094°32'0 0.0
2018-May-17 19:49N 29°18' W 094°32'0 0.0
2018-May-17 19:28N 29°18' W 094°32'0 0.0
2018-May-17 18:58N 29°18' W 094°32'0 0.0
2018-May-17 14:04N 29°18' W 094°32'0 0.0
2018-May-17 13:49N 29°18' W 094°32'0 0.0
2018-May-17 13:28N 29°18' W 094°32'0 0.0
2018-May-17 12:13N 29°18' W 094°32'0 0.0
2018-May-17 09:52N 29°18' W 094°32'0 0.0
2018-May-17 09:22N 29°18' W 094°32'0 0.0
2018-May-17 08:46N 29°18' W 094°32'0 0.0
2018-May-17 07:55N 29°18' W 094°32'0 0.0
2018-May-17 07:28N 29°18' W 094°32'0 0.0
2018-May-17 06:58N 29°18' W 094°32'0 0.0
2018-May-17 06:25N 29°18' W 094°32'0 0.0
2018-May-17 05:58N 29°18' W 094°32'0 0.0
2018-May-17 05:28N 29°18' W 094°32'0 0.0
2018-May-17 04:58N 29°18' W 094°32'0 0.0
2018-May-17 04:28N 29°18' W 094°32'0 0.0
2018-May-17 03:58N 29°18' W 094°32'0 0.0
2018-May-17 03:28N 29°18' W 094°32'0 0.0
2018-May-17 02:55N 29°18' W 094°32'0 0.0
2018-May-17 02:28N 29°18' W 094°32'0 0.0
2018-May-17 01:58N 29°18' W 094°32'0 0.0
2018-May-17 01:28N 29°18' W 094°32'0 0.0
2018-May-17 00:58N 29°18' W 094°32'0 0.0
2018-May-17 00:28N 29°18' W 094°32'0 0.0
2018-May-16 23:58N 29°18' W 094°32'0 0.0
2018-May-16 23:28N 29°18' W 094°32'0 0.0
2018-May-16 22:58N 29°18' W 094°32'0 0.0
2018-May-16 22:28N 29°18' W 094°32'0 0.0
2018-May-16 21:55N 29°18' W 094°32'0 0.0
2018-May-16 21:28N 29°18' W 094°32'0 0.0
2018-May-16 20:58N 29°18' W 094°32'0 0.0
2018-May-16 20:25N 29°18' W 094°32'0 0.0
2018-May-16 19:52N 29°18' W 094°32'0 0.0
2018-May-16 19:28N 29°18' W 094°32'0 0.0
2018-May-16 18:55N 29°18' W 094°32'0 0.0
2018-May-16 18:28N 29°18' W 094°32'0 0.0
2018-May-16 17:58N 29°18' W 094°32'0 0.0
2018-May-16 17:28N 29°18' W 094°32'0 0.0
2018-May-16 16:58N 29°18' W 094°32'0 0.0
2018-May-16 16:25N 29°18' W 094°32'0 0.0
2018-May-16 15:52N 29°18' W 094°32'0 0.0
2018-May-16 15:28N 29°18' W 094°32'0 0.0
2018-May-16 14:58N 29°18' W 094°32'0 0.0
2018-May-16 14:28N 29°18' W 094°32'0 0.0
2018-May-16 13:58N 29°18' W 094°32'0 0.0
2018-May-16 13:28N 29°18' W 094°32'0 0.1
2018-May-16 12:58N 29°18' W 094°32'0 0.0
2018-May-16 12:28N 29°18' W 094°32'0 0.0
2018-May-16 11:58N 29°18' W 094°32'0 0.0
2018-May-16 11:28N 29°18' W 094°32'0 0.0
2018-May-16 10:58N 29°18' W 094°32'0 0.0
2018-May-16 10:28N 29°18' W 094°32'0 0.0
2018-May-16 09:58N 29°18' W 094°32'0 0.0
2018-May-16 09:28N 29°18' W 094°32'0 0.0
2018-May-16 08:55N 29°18' W 094°32'0 0.0
2018-May-16 08:25N 29°18' W 094°32'0 0.0
2018-May-16 07:58N 29°18' W 094°32'0 0.0
2018-May-16 07:28N 29°18' W 094°32'0 0.0
2018-May-16 06:58N 29°18' W 094°32'0 0.0
2018-May-16 06:28N 29°18' W 094°32'0 0.0
2018-May-16 05:58N 29°18' W 094°32'0 0.0
2018-May-16 05:28N 29°18' W 094°32'0 0.0
2018-May-16 04:58N 29°18' W 094°32'0 0.0
2018-May-16 04:28N 29°18' W 094°32'0 0.0
2018-May-16 03:58N 29°18' W 094°32'0 0.0
2018-May-16 03:28N 29°18' W 094°32'0 0.0
2018-May-16 02:55N 29°18' W 094°32'0 0.0
2018-May-16 02:28N 29°18' W 094°32'0 0.0
2018-May-16 01:58N 29°18' W 094°32'0 0.0
2018-May-16 01:28N 29°18' W 094°32'0 0.0
2018-May-16 00:58N 29°18' W 094°32'0 0.0
2018-May-16 00:25N 29°18' W 094°32'0 0.0
2018-May-15 23:58N 29°18' W 094°32'0 0.0
2018-May-15 23:28N 29°18' W 094°32'0 0.0
2018-May-15 21:22N 29°18' W 094°32'0 0.0
2018-May-15 20:40N 29°18' W 094°32'0 0.0
2018-May-15 20:22N 29°18' W 094°32'0 0.0
2018-May-15 19:55N 29°18' W 094°32'0 0.0
2018-May-15 19:28N 29°18' W 094°32'0 0.0
2018-May-15 18:58N 29°18' W 094°32'0 0.0
2018-May-15 18:04N 29°18' W 094°32'0 0.0
2018-May-15 16:55N 29°18' W 094°32'0 0.0
2018-May-15 16:25N 29°18' W 094°32'0 0.0
2018-May-15 15:43N 29°18' W 094°32'0 0.0
2018-May-15 15:07N 29°18' W 094°32'0 0.1
2018-May-15 14:58N 29°18' W 094°32'0 0.0
2018-May-15 14:28N 29°18' W 094°32'0 0.0
2018-May-15 13:55N 29°18' W 094°32'0 0.0
2018-May-15 13:28N 29°18' W 094°32'0 0.0
2018-May-15 12:58N 29°18' W 094°32'0 0.0
2018-May-15 12:28N 29°18' W 094°32'0 0.0
2018-May-15 11:55N 29°18' W 094°32'0 0.0
2018-May-15 11:28N 29°18' W 094°32'0 0.0
2018-May-15 10:46N 29°18' W 094°32'0 0.0
2018-May-15 10:22N 29°18' W 094°32'0 0.2
2018-May-15 09:58N 29°18' W 094°32'0 0.1
2018-May-15 09:28N 29°18' W 094°32'0 0.0
2018-May-15 08:58N 29°18' W 094°32'0 0.0
2018-May-15 08:28N 29°18' W 094°32'0 0.0
2018-May-15 07:58N 29°18' W 094°32'0 0.0
2018-May-15 07:28N 29°18' W 094°32'0 0.0
2018-May-15 06:58N 29°18' W 094°32'0 0.0
2018-May-15 06:28N 29°18' W 094°32'0 0.0
2018-May-15 05:58N 29°18' W 094°32'0 0.0
2018-May-15 05:28N 29°18' W 094°32'0 0.0
2018-May-15 04:52N 29°18' W 094°32'0 0.0
2018-May-15 04:28N 29°18' W 094°32'0 0.0
2018-May-15 03:58N 29°18' W 094°32'0 0.0
2018-May-15 03:28N 29°18' W 094°32'0 0.0
2018-May-15 02:55N 29°18' W 094°32'0 0.0
2018-May-15 02:28N 29°18' W 094°32'0 0.0
2018-May-15 01:58N 29°18' W 094°32'0 0.0
2018-May-15 01:28N 29°18' W 094°32'0 0.1
2018-May-15 00:55N 29°18' W 094°32'0 0.0
2018-May-15 00:28N 29°18' W 094°32'0 0.0
2018-May-14 23:58N 29°18' W 094°32'0 0.0
2018-May-14 23:28N 29°18' W 094°32'0 0.0
2018-May-14 22:58N 29°18' W 094°32'0 0.0
2018-May-14 22:28N 29°18' W 094°32'0 0.0
2018-May-14 21:58N 29°18' W 094°32'0 0.0
2018-May-14 21:28N 29°18' W 094°32'0 0.0
2018-May-14 20:58N 29°18' W 094°32'0 0.1
2018-May-14 20:28N 29°18' W 094°32'0 0.1
2018-May-14 19:55N 29°18' W 094°32'0 0.0
2018-May-14 19:28N 29°18' W 094°32'0 0.0
2018-May-14 18:58N 29°18' W 094°32'0 0.0
2018-May-14 15:04N 29°18' W 094°32'0 0.0
2018-May-14 14:10N 29°18' W 094°32'0 0.0
2018-May-14 12:58N 29°18' W 094°32'0 0.0
2018-May-14 10:10N 29°18' W 094°32'0 0.0
2018-May-14 09:58N 29°18' W 094°32'0 0.0
2018-May-14 09:19N 29°18' W 094°32'  
Track history (hours):
 
Tides and Currents Weather Stations Pressure Air Temp Water Temp Dewpoint Dewpoint Depression Visibility Wind Speed Wind Dir Waves Ship Positions

Sti Opera

Last reported at 2018-May-24 08:48 UTC. Time now 2018-Jun-18 01:44 UTC.
Position N 28°51' W 094°56'.
Warning: this ship's position is 24 days out of date.

Length 183 m; draft 9 m.

Type: Tanker. MMSI: 538005269.

Date/timePositionNaut miles runAvg speedWind from/ knotsBaromVisibWave heightAir tempDewpointWater temp
2018-May-24 08:48N 28°51' W 094°56'310.9
2018-May-24 08:30N 28°52' W 094°53'611.0
2018-May-24 08:01N 28°55' W 094°48'611.4
2018-May-24 07:30N 28°59' W 094°42'611.6
2018-May-24 07:00N 29°02' W 094°37'1010.5
2018-May-24 06:00N 29°08' W 094°28'511.0
2018-May-24 05:30N 29°12' W 094°32'611.2
2018-May-24 05:00N 29°17' W 094°36'510.2
2018-May-24 04:30N 29°20' W 094°40'612.0
2018-May-24 04:00N 29°21' W 094°47'612.3
2018-May-24 03:30N 29°27' W 094°50'612.1
2018-May-24 03:00N 29°32' W 094°54'611.4
2018-May-24 02:30N 29°37' W 094°57'510.3
2018-May-24 02:00N 29°41' W 094°59'4 8.0
2018-May-24 01:30N 29°44' W 095°03'3 5.8
2018-May-24 00:57N 29°44' W 095°07'3 6.5
2018-May-24 00:30N 29°45' W 095°10'3 5.6
2018-May-24 00:00N 29°43' W 095°13'3 0.2
2018-May-23 05:34N 29°44' W 095°17'0 1.1
2018-May-23 05:29N 29°44' W 095°17'2 2.5
2018-May-23 04:32N 29°43' W 095°14'0 5.9
2018-May-23 04:28N 29°43' W 095°14'2 5.2
2018-May-23 04:00N 29°45' W 095°12'3 5.6
2018-May-23 03:29N 29°44' W 095°08'3 6.2
2018-May-23 03:00N 29°46' W 095°05'4 7.1
2018-May-23 02:30N 29°44' W 095°02'4 7.6
2018-May-23 02:00N 29°41' W 094°59'5 9.9
2018-May-23 01:31N 29°36' W 094°57'510.9
2018-May-23 01:01N 29°32' W 094°54'611.7
2018-May-23 00:30N 29°27' W 094°50'611.8
2018-May-23 00:00N 29°21' W 094°47'611.3
2018-May-22 23:31N 29°20' W 094°41'611.5
2018-May-22 23:00N 29°18' W 094°35'3 2.9
2018-May-22 22:04N 29°18' W 094°32'0 0.0
2018-May-22 21:56N 29°18' W 094°32'0 0.0
2018-May-22 20:58N 29°18' W 094°32'0 0.0
2018-May-22 19:28N 29°18' W 094°32'0 0.0
2018-May-22 11:43N 29°18' W 094°32'0 0.0
2018-May-22 04:07N 29°18' W 094°32'0 0.0
2018-May-22 03:40N 29°18' W 094°32'0 0.0
2018-May-21 05:22N 29°18' W 094°32'0 0.1
2018-May-21 04:43N 29°18' W 094°32'0 0.1
2018-May-21 04:22N 29°18' W 094°32'0 0.1
2018-May-21 02:37N 29°18' W 094°32'0 0.0
2018-May-21 02:19N 29°18' W 094°32'0 0.0
2018-May-21 01:07N 29°18' W 094°32'  
2018-May-18 12:49N 29°18' W 094°32'0 0.0
2018-May-18 12:04N 29°18' W 094°32'0 0.1
2018-May-18 11:58N 29°18' W 094°32'0 0.0
2018-May-18 11:28N 29°18' W 094°32'0 0.0
2018-May-18 10:58N 29°18' W 094°32'0 0.0
2018-May-18 10:28N 29°18' W 094°32'0 0.0
2018-May-18 09:55N 29°18' W 094°32'0 0.0
2018-May-18 09:28N 29°18' W 094°32'0 0.0
2018-May-18 08:58N 29°18' W 094°32'0 0.0
2018-May-18 08:28N 29°18' W 094°32'0 0.0
2018-May-18 07:58N 29°18' W 094°32'0 0.0
2018-May-18 07:28N 29°18' W 094°32'0 0.0
2018-May-18 06:58N 29°18' W 094°32'0 0.0
2018-May-18 06:28N 29°18' W 094°32'0 0.0
2018-May-18 05:58N 29°18' W 094°32'0 0.0
2018-May-18 05:22N 29°18' W 094°32'0 0.0
2018-May-18 04:52N 29°18' W 094°32'0 0.0
2018-May-18 04:22N 29°18' W 094°32'0 0.0
2018-May-18 03:58N 29°18' W 094°32'0 0.0
2018-May-18 03:28N 29°18' W 094°32'0 0.0
2018-May-18 02:58N 29°18' W 094°32'0 0.0
2018-May-18 02:28N 29°18' W 094°32'0 0.0
2018-May-18 01:55N 29°18' W 094°32'0 0.0
2018-May-18 01:28N 29°18' W 094°32'0 0.0
2018-May-18 00:58N 29°18' W 094°32'0 0.0
2018-May-18 00:28N 29°18' W 094°32'0 0.0
2018-May-17 23:58N 29°18' W 094°32'0 0.0
2018-May-17 23:28N 29°18' W 094°32'0 0.0
2018-May-17 22:58N 29°18' W 094°32'0 0.0
2018-May-17 22:28N 29°18' W 094°32'0 0.0
2018-May-17 21:55N 29°18' W 094°32'0 0.0
2018-May-17 21:28N 29°18' W 094°32'0 0.0
2018-May-17 20:58N 29°18' W 094°32'0 0.0
2018-May-17 20:28N 29°18' W 094°32'0 0.0
2018-May-17 19:49N 29°18' W 094°32'0 0.0
2018-May-17 19:28N 29°18' W 094°32'0 0.0
2018-May-17 18:58N 29°18' W 094°32'0 0.0
2018-May-17 14:04N 29°18' W 094°32'0 0.0
2018-May-17 13:49N 29°18' W 094°32'0 0.0
2018-May-17 13:28N 29°18' W 094°32'0 0.0
2018-May-17 12:13N 29°18' W 094°32'0 0.0
2018-May-17 09:52N 29°18' W 094°32'0 0.0
2018-May-17 09:22N 29°18' W 094°32'0 0.0
2018-May-17 08:46N 29°18' W 094°32'0 0.0
2018-May-17 07:55N 29°18' W 094°32'0 0.0
2018-May-17 07:28N 29°18' W 094°32'0 0.0
2018-May-17 06:58N 29°18' W 094°32'0 0.0
2018-May-17 06:25N 29°18' W 094°32'0 0.0
2018-May-17 05:58N 29°18' W 094°32'0 0.0
2018-May-17 05:28N 29°18' W 094°32'0 0.0
2018-May-17 04:58N 29°18' W 094°32'0 0.0
2018-May-17 04:28N 29°18' W 094°32'0 0.0
2018-May-17 03:58N 29°18' W 094°32'0 0.0
2018-May-17 03:28N 29°18' W 094°32'0 0.0
2018-May-17 02:55N 29°18' W 094°32'0 0.0
2018-May-17 02:28N 29°18' W 094°32'0 0.0
2018-May-17 01:58N 29°18' W 094°32'0 0.0
2018-May-17 01:28N 29°18' W 094°32'0 0.0
2018-May-17 00:58N 29°18' W 094°32'0 0.0
2018-May-17 00:28N 29°18' W 094°32'0 0.0
2018-May-16 23:58N 29°18' W 094°32'0 0.0
2018-May-16 23:28N 29°18' W 094°32'0 0.0
2018-May-16 22:58N 29°18' W 094°32'0 0.0
2018-May-16 22:28N 29°18' W 094°32'0 0.0
2018-May-16 21:55N 29°18' W 094°32'0 0.0
2018-May-16 21:28N 29°18' W 094°32'0 0.0
2018-May-16 20:58N 29°18' W 094°32'0 0.0
2018-May-16 20:25N 29°18' W 094°32'0 0.0
2018-May-16 19:52N 29°18' W 094°32'0 0.0
2018-May-16 19:28N 29°18' W 094°32'0 0.0
2018-May-16 18:55N 29°18' W 094°32'0 0.0
2018-May-16 18:28N 29°18' W 094°32'0 0.0
2018-May-16 17:58N 29°18' W 094°32'0 0.0
2018-May-16 17:28N 29°18' W 094°32'0 0.0
2018-May-16 16:58N 29°18' W 094°32'0 0.0
2018-May-16 16:25N 29°18' W 094°32'0 0.0
2018-May-16 15:52N 29°18' W 094°32'0 0.0
2018-May-16 15:28N 29°18' W 094°32'0 0.0
2018-May-16 14:58N 29°18' W 094°32'0 0.0
2018-May-16 14:28N 29°18' W 094°32'0 0.0
2018-May-16 13:58N 29°18' W 094°32'0 0.0
2018-May-16 13:28N 29°18' W 094°32'0 0.1
2018-May-16 12:58N 29°18' W 094°32'0 0.0
2018-May-16 12:28N 29°18' W 094°32'0 0.0
2018-May-16 11:58N 29°18' W 094°32'0 0.0
2018-May-16 11:28N 29°18' W 094°32'0 0.0
2018-May-16 10:58N 29°18' W 094°32'0 0.0
2018-May-16 10:28N 29°18' W 094°32'0 0.0
2018-May-16 09:58N 29°18' W 094°32'0 0.0
2018-May-16 09:28N 29°18' W 094°32'0 0.0
2018-May-16 08:55N 29°18' W 094°32'0 0.0
2018-May-16 08:25N 29°18' W 094°32'0 0.0
2018-May-16 07:58N 29°18' W 094°32'0 0.0
2018-May-16 07:28N 29°18' W 094°32'0 0.0
2018-May-16 06:58N 29°18' W 094°32'0 0.0
2018-May-16 06:28N 29°18' W 094°32'0 0.0
2018-May-16 05:58N 29°18' W 094°32'0 0.0
2018-May-16 05:28N 29°18' W 094°32'0 0.0
2018-May-16 04:58N 29°18' W 094°32'0 0.0
2018-May-16 04:28N 29°18' W 094°32'0 0.0
2018-May-16 03:58N 29°18' W 094°32'0 0.0
2018-May-16 03:28N 29°18' W 094°32'0 0.0
2018-May-16 02:55N 29°18' W 094°32'0 0.0
2018-May-16 02:28N 29°18' W 094°32'0 0.0
2018-May-16 01:58N 29°18' W 094°32'0 0.0
2018-May-16 01:28N 29°18' W 094°32'0 0.0
2018-May-16 00:58N 29°18' W 094°32'0 0.0
2018-May-16 00:25N 29°18' W 094°32'0 0.0
2018-May-15 23:58N 29°18' W 094°32'0 0.0
2018-May-15 23:28N 29°18' W 094°32'0 0.0
2018-May-15 21:22N 29°18' W 094°32'0 0.0
2018-May-15 20:40N 29°18' W 094°32'0 0.0
2018-May-15 20:22N 29°18' W 094°32'0 0.0
2018-May-15 19:55N 29°18' W 094°32'0 0.0
2018-May-15 19:28N 29°18' W 094°32'0 0.0
2018-May-15 18:58N 29°18' W 094°32'0 0.0
2018-May-15 18:04N 29°18' W 094°32'0 0.0
2018-May-15 16:55N 29°18' W 094°32'0 0.0
2018-May-15 16:25N 29°18' W 094°32'0 0.0
2018-May-15 15:43N 29°18' W 094°32'0 0.0
2018-May-15 15:07N 29°18' W 094°32'0 0.1
2018-May-15 14:58N 29°18' W 094°32'0 0.0
2018-May-15 14:28N 29°18' W 094°32'0 0.0
2018-May-15 13:55N 29°18' W 094°32'0 0.0
2018-May-15 13:28N 29°18' W 094°32'0 0.0
2018-May-15 12:58N 29°18' W 094°32'0 0.0
2018-May-15 12:28N 29°18' W 094°32'0 0.0
2018-May-15 11:55N 29°18' W 094°32'0 0.0
2018-May-15 11:28N 29°18' W 094°32'0 0.0
2018-May-15 10:46N 29°18' W 094°32'0 0.0
2018-May-15 10:22N 29°18' W 094°32'0 0.2
2018-May-15 09:58N 29°18' W 094°32'0 0.1
2018-May-15 09:28N 29°18' W 094°32'0 0.0
2018-May-15 08:58N 29°18' W 094°32'0 0.0
2018-May-15 08:28N 29°18' W 094°32'0 0.0
2018-May-15 07:58N 29°18' W 094°32'0 0.0
2018-May-15 07:28N 29°18' W 094°32'0 0.0
2018-May-15 06:58N 29°18' W 094°32'0 0.0
2018-May-15 06:28N 29°18' W 094°32'0 0.0
2018-May-15 05:58N 29°18' W 094°32'0 0.0
2018-May-15 05:28N 29°18' W 094°32'0 0.0
2018-May-15 04:52N 29°18' W 094°32'0 0.0
2018-May-15 04:28N 29°18' W 094°32'0 0.0
2018-May-15 03:58N 29°18' W 094°32'0 0.0
2018-May-15 03:28N 29°18' W 094°32'0 0.0
2018-May-15 02:55N 29°18' W 094°32'0 0.0
2018-May-15 02:28N 29°18' W 094°32'0 0.0
2018-May-15 01:58N 29°18' W 094°32'0 0.0
2018-May-15 01:28N 29°18' W 094°32'0 0.1
2018-May-15 00:55N 29°18' W 094°32'0 0.0
2018-May-15 00:28N 29°18' W 094°32'0 0.0
2018-May-14 23:58N 29°18' W 094°32'0 0.0
2018-May-14 23:28N 29°18' W 094°32'0 0.0
2018-May-14 22:58N 29°18' W 094°32'0 0.0
2018-May-14 22:28N 29°18' W 094°32'0 0.0
2018-May-14 21:58N 29°18' W 094°32'0 0.0
2018-May-14 21:28N 29°18' W 094°32'0 0.0
2018-May-14 20:58N 29°18' W 094°32'0 0.1
2018-May-14 20:28N 29°18' W 094°32'0 0.1
2018-May-14 19:55N 29°18' W 094°32'0 0.0
2018-May-14 19:28N 29°18' W 094°32'0 0.0
2018-May-14 18:58N 29°18' W 094°32'0 0.0
2018-May-14 15:04N 29°18' W 094°32'0 0.0
2018-May-14 14:10N 29°18' W 094°32'0 0.0
2018-May-14 12:58N 29°18' W 094°32'0 0.0
2018-May-14 10:10N 29°18' W 094°32'0 0.0
2018-May-14 09:58N 29°18' W 094°32'0 0.0
2018-May-14 09:19N 29°18' W 094°32'  

Dump ship's entire track history